Latest Weather Observations for Point Fawcett

IDD60901

Issued at 4:51 pm CST Friday 18 January 2019 (issued every 10 minutes, with the page automatically refreshed every 10 minutes)

About weather observations | Map of Darwin area stations | Latest observations for Darwin area | Other Formats
Station Details ID: 200731 Name: POINT FAWCETT Lat: -11.76 Lon: 130.03 Height: 6.5 m
Data from the previous 72 hours. | See also: Recent months at Point Fawcett
Date/Time
CST
Temp
°C
App
Temp
°C
Dew
Point
°C
Rel
Hum
%
Delta-T
°C
Wind Press
QNH
hPa
Press
MSL
hPa
Rain since
9am
mm
Dir  Spd
km/h
Gust
km/h
Spd
kts
Gust
kts
18/04:30pm 30.9 35.3 25.0 71 4.2 SW 11 20 6 11 1004.8 - 0.2
18/04:00pm 31.8 35.3 24.9 67 4.9 SW 15 20 8 11 1004.7 - 0.2
18/03:30pm 31.8 35.9 25.2 68 4.7 SW 13 20 7 11 1005.2 - 0.0
18/03:00pm 30.2 34.8 25.3 75 3.5 SW 11 17 6 9 1005.5 1005.4 0.0
18/02:30pm 29.6 34.8 25.1 77 3.2 SW 7 11 4 6 1006.0 - 0.0
18/02:00pm 29.6 34.2 24.2 73 3.8 WSW 7 13 4 7 1006.3 - 0.0
18/01:30pm 30.4 35.5 25.5 75 3.5 WSW 9 15 5 8 1006.6 - 0.0
18/01:00pm 30.8 35.4 25.4 73 3.8 WSW 11 17 6 9 1006.9 - 0.0
18/12:30pm 30.2 34.9 25.5 76 3.3 W 11 15 6 8 1006.9 - 0.0
18/12:00pm 29.9 34.9 25.4 77 3.2 W 9 13 5 7 1007.2 1007.1 0.0
18/11:30am 30.1 35.1 25.4 76 3.3 WNW 9 13 5 7 1007.3 - 0.0
18/11:00am 29.7 34.6 24.6 74 3.6 W 7 11 4 6 1007.4 - 0.0
18/10:30am 29.1 33.6 24.6 76 3.1 WNW 9 11 5 6 1007.3 - 0.0
18/10:00am 29.1 34.2 25.5 81 2.5 NW 9 11 5 6 1007.0 - 0.0
18/09:30am 28.8 33.8 25.4 82 2.4 N 9 13 5 7 1006.7 - 0.0
18/09:00am 28.4 33.8 25.2 83 2.3 WNW 6 9 3 5 1006.3 1006.2 9.6
18/08:30am 27.5 32.8 25.3 88 1.5 WNW 7 11 4 6 1006.1 - 9.6
18/08:00am 26.7 31.6 25.3 92 1.0 W 9 13 5 7 1006.4 - 9.6
18/07:30am 26.1 31.4 25.2 95 0.6 W 7 11 4 6 1006.5 - 9.6
18/07:00am 25.4 31.5 24.5 95 0.6 CALM 0 0 0 0 1006.0 - 9.6
18/06:30am 25.2 31.2 24.3 95 0.6 CALM 0 0 0 0 1005.5 - 9.6
18/06:00am 25.2 30.8 24.3 95 0.6 SSW 2 6 1 3 1004.9 1004.8 9.6
18/05:30am 25.2 31.2 24.3 95 0.6 CALM 0 0 0 0 1004.8 - 9.6
18/05:00am 25.1 29.9 24.2 95 0.6 SE 6 9 3 5 1005.3 - 9.6
18/04:30am 25.1 29.4 24.2 95 0.6 SSE 9 13 5 7 1005.5 - 9.6
18/04:00am 25.1 27.0 23.7 92 1.0 ESE 20 41 11 22 1005.8 - 8.0
18/03:30am 26.8 30.0 24.3 86 1.7 SE 15 28 8 15 1005.7 - 0.2
18/03:00am 26.3 31.3 24.5 90 1.2 SE 6 9 3 5 1005.6 1005.5 0.2
18/02:30am 26.4 31.6 24.8 91 1.1 SSE 6 7 3 4 1006.1 - 0.2
18/02:00am 26.3 31.3 24.5 90 1.2 S 6 9 3 5 1006.3 - 0.2
18/01:30am 26.3 31.3 24.5 90 1.2 S 6 7 3 4 1006.7 - 0.2
18/01:00am 26.2 32.2 24.2 89 1.4 CALM 0 0 0 0 1007.0 - 0.2
18/12:30am 26.3 32.3 24.2 88 1.4 CALM 0 0 0 0 1007.7 - 0.2
18/12:00am 26.6 32.7 24.4 88 1.5 CALM 0 0 0 0 1007.8 1007.7 0.2
 
Date/Time
CST
Temp
°C
App
Temp
°C
Dew
Point
°C
Rel
Hum
%
Delta-T
°C
Wind Press
QNH
hPa
Press
MSL
hPa
Rain since
9am
mm
Dir  Spd
km/h
Gust
km/h
Spd
kts
Gust
kts
17/11:30pm 26.8 32.2 24.5 87 1.6 SSE 4 6 2 3 1007.7 - 0.2
17/11:00pm 27.0 32.0 24.5 86 1.7 SE 6 7 3 4 1008.1 - 0.2
17/10:30pm 27.0 32.9 24.1 84 2.0 CALM 0 0 0 0 1008.0 - 0.2
17/10:00pm 28.0 32.9 24.6 82 2.4 NNW 7 11 4 6 1007.4 - 0.2
17/09:30pm 27.5 32.2 24.3 83 2.2 NNW 7 9 4 5 1006.7 - 0.2
17/09:00pm 26.9 31.4 24.0 84 2.0 NW 7 9 4 5 1006.6 1006.5 0.2
17/08:30pm 27.0 32.7 23.7 82 2.3 CALM 0 0 0 0 1006.4 - 0.2
17/08:00pm 27.7 32.6 23.7 79 2.7 NE 4 6 2 3 1006.0 - 0.2
17/07:30pm 28.3 32.4 23.2 74 3.5 NE 7 11 4 6 1005.0 - 0.2
17/07:00pm 29.4 33.3 23.6 71 4.0 NNE 9 13 5 7 1004.4 - 0.2
17/06:30pm 29.7 33.9 23.4 69 4.3 NE 7 13 4 7 1004.0 - 0.2
17/06:00pm 29.7 33.1 23.4 69 4.3 NE 11 15 6 8 1003.8 1003.7 0.2
17/05:30pm 29.7 33.1 24.6 74 3.6 NNE 15 22 8 12 1003.8 - 0.2
17/05:00pm 29.1 30.5 22.8 69 4.3 ENE 20 39 11 21 1004.4 - 0.2
17/04:30pm 31.8 36.4 24.1 63 5.4 SE 7 13 4 7 1004.4 - 0.2
17/04:00pm 32.1 36.5 24.4 63 5.4 S 9 15 5 8 1004.4 - 0.2
17/03:30pm 33.4 37.2 24.0 58 6.6 SSE 11 20 6 11 1004.5 - 0.2
17/03:00pm 33.0 36.7 23.9 59 6.4 SSE 11 20 6 11 1004.7 1004.6 0.2
17/02:30pm 33.4 38.2 25.1 61 5.9 SE 9 13 5 7 1005.1 - 0.2
17/02:00pm 33.1 37.4 24.3 60 6.2 SSE 9 19 5 10 1005.7 - 0.2
17/01:30pm 32.6 36.0 24.1 61 5.9 SSE 13 20 7 11 1006.0 - 0.2
17/01:00pm 32.5 36.1 24.3 62 5.7 SSE 13 22 7 12 1006.1 - 0.2
17/12:30pm 32.1 36.0 24.9 65 5.1 SSE 13 24 7 13 1006.4 - 0.2
17/12:00pm 31.2 35.7 24.6 68 4.6 E 9 15 5 8 1006.7 1006.6 0.2
17/11:30am 30.5 34.8 24.2 69 4.4 W 9 13 5 7 1006.7 - 0.2
17/11:00am 31.0 36.4 25.4 72 4.0 E 7 11 4 6 1006.8 - 0.2
17/10:30am 29.4 34.8 25.4 79 2.8 E 7 11 4 6 1007.2 - 0.2
17/10:00am 27.5 32.4 24.3 83 2.2 SE 6 9 3 5 1007.2 - 0.2
17/09:30am 26.1 30.2 24.0 88 1.4 ESE 9 13 5 7 1007.2 - 0.2
17/09:00am 25.7 30.0 23.7 89 1.4 SE 7 11 4 6 1007.0 1006.9 0.6
17/08:30am 25.3 28.5 23.0 87 1.6 SSW 11 17 6 9 1007.3 - 0.6
17/08:00am 26.4 30.1 23.9 86 1.7 SSE 11 19 6 10 1007.7 - 0.2
17/07:30am 26.3 29.9 24.3 89 1.4 E 13 19 7 10 1007.5 - 0.2
17/07:00am 25.9 30.8 24.3 91 1.1 SSE 6 7 3 4 1007.2 - 0.2
17/06:30am 26.0 30.7 24.0 89 1.4 S 6 9 3 5 1006.7 - 0.2
17/06:00am 26.1 30.4 24.3 90 1.2 SSW 9 13 5 7 1006.0 1005.9 0.2
17/05:30am 26.0 30.1 24.0 89 1.4 SW 9 17 5 9 1006.0 - 0.2
17/05:00am 25.9 30.3 23.8 88 1.4 SW 7 11 4 6 1005.8 - 0.2
17/04:30am 25.9 30.5 23.8 88 1.4 SW 6 9 3 5 1005.8 - 0.2
17/04:00am 26.2 30.9 23.9 87 1.6 WSW 6 11 3 6 1005.7 - 0.2
17/03:30am 27.1 31.5 23.8 82 2.3 WSW 7 11 4 6 1005.8 - 0.2
17/03:00am 27.7 31.8 24.5 83 2.2 W 11 15 6 8 1005.9 1005.8 0.2
17/02:30am 27.3 31.7 24.4 84 2.0 WSW 9 13 5 7 1006.0 - 0.2
17/02:00am 28.0 32.2 24.8 83 2.2 WSW 11 15 6 8 1006.5 - 0.2
17/01:30am 28.3 32.7 25.1 83 2.2 SW 11 17 6 9 1006.7 - 0.2
17/01:00am 27.5 32.3 25.1 87 1.7 WSW 9 15 5 8 1007.2 - 0.2
17/12:30am 26.4 31.2 24.4 89 1.4 WSW 7 11 4 6 1007.6 - 0.2
17/12:00am 26.7 31.6 24.7 89 1.4 WSW 7 11 4 6 1007.9 1007.8 0.2
 
Date/Time
CST
Temp
°C
App
Temp
°C
Dew
Point
°C
Rel
Hum
%
Delta-T
°C
Wind Press
QNH
hPa
Press
MSL
hPa
Rain since
9am
mm
Dir  Spd
km/h
Gust
km/h
Spd
kts
Gust
kts
16/11:30pm 26.4 31.5 24.6 90 1.2 SSW 6 7 3 4 1008.2 - 0.2
16/11:00pm 26.3 31.2 24.3 89 1.4 S 6 7 3 4 1008.7 - 0.2
16/10:30pm 26.2 31.0 24.1 88 1.4 SSW 6 6 3 3 1008.5 - 0.2
16/10:00pm 26.6 32.5 24.1 86 1.7 CALM 0 0 0 0 1008.2 - 0.2
16/09:30pm 27.2 32.3 24.1 83 2.1 W 4 7 2 4 1007.6 - 0.2
16/09:00pm 28.2 33.0 24.4 80 2.6 W 7 7 4 4 1007.2 1007.1 0.2
16/08:30pm 29.0 33.9 24.6 77 3.1 W 7 9 4 5 1006.9 - 0.2
16/08:00pm 29.0 34.8 24.6 77 3.1 W 2 9 1 5 1006.4 - 0.2
16/07:30pm 29.8 35.0 24.2 72 3.9 WSW 4 7 2 4 1005.8 - 0.2
16/07:00pm 30.2 35.0 24.1 70 4.2 W 6 9 3 5 1005.2 - 0.2
16/06:30pm 30.9 35.3 23.8 66 4.9 WSW 7 11 4 6 1005.2 - 0.2
16/06:00pm 31.9 37.1 24.2 63 5.4 SSW 4 9 2 5 1005.2 1005.1 0.2
16/05:30pm 31.9 36.3 24.5 65 5.2 WSW 9 15 5 8 1005.0 - 0.2
16/05:00pm 32.1 36.2 23.9 62 5.7 SW 9 13 5 7 1005.1 - 0.2
16/04:30pm 31.8 36.0 24.1 63 5.4 SW 9 13 5 7 1005.3 - 0.2
16/04:00pm 31.8 35.6 24.1 63 5.4 SSW 11 19 6 10 1005.5 - 0.2
16/03:30pm 32.0 36.2 24.1 63 5.5 SSW 9 17 5 9 1005.7 - 0.2
16/03:00pm 32.5 36.6 24.5 62 5.6 SSW 11 17 6 9 1006.0 1005.9 0.2
16/02:30pm 31.8 35.7 23.6 62 5.7 S 9 15 5 8 1006.3 - 0.2
16/02:00pm 31.9 36.0 24.5 65 5.2 SSW 11 19 6 10 1006.6 - 0.2
16/01:30pm 31.9 35.6 24.5 65 5.2 SW 13 19 7 10 1007.0 - 0.2
16/01:00pm 31.1 34.4 24.5 68 4.6 SW 15 20 8 11 1007.2 - 0.2
16/12:30pm 30.7 34.9 24.8 71 4.1 WSW 11 15 6 8 1007.5 - 0.2
16/12:00pm 29.8 33.9 24.0 71 4.0 W 9 11 5 6 1007.8 1007.7 0.2
16/11:30am 30.3 35.1 24.4 70 4.1 WNW 7 9 4 5 1008.1 - 0.2
16/11:00am 29.9 34.7 24.5 73 3.8 WNW 7 9 4 5 1008.1 - 0.2
16/10:30am 29.6 34.4 24.5 74 3.6 W 7 11 4 6 1007.9 - 0.2
16/10:00am 30.0 36.8 25.5 77 3.2 CALM 0 6 0 3 1008.2 - 0.0
16/09:30am 28.0 33.6 24.8 83 2.2 SE 4 7 2 4 1008.4 - 0.0
16/09:00am 27.3 32.5 25.1 88 1.5 SE 7 9 4 5 1008.4 1008.3 2.2
16/08:30am 26.5 31.9 25.1 92 1.0 SE 6 9 3 5 1008.1 - 2.2
16/08:00am 25.8 30.8 24.8 94 0.7 SE 7 13 4 7 1008.1 - 2.2
16/07:30am 25.4 29.8 24.5 95 0.6 SE 9 13 5 7 1007.6 - 2.2
16/07:00am 25.0 29.6 24.1 95 0.6 SE 7 11 4 6 1007.0 - 2.2
16/06:30am 24.8 28.7 23.6 93 0.8 SE 9 13 5 7 1006.8 - 2.2
16/06:00am 25.0 28.6 23.8 93 0.8 SE 11 17 6 9 1006.6 1006.5 2.2
16/05:30am 25.2 28.5 23.8 92 1.0 SE 13 20 7 11 1006.7 - 2.0
16/05:00am 25.6 29.1 23.6 89 1.4 SE 11 20 6 11 1007.0 - 0.0
16/04:30am 25.7 28.6 23.9 90 1.2 ESE 15 30 8 16 1006.9 - 0.0
16/04:00am 25.3 30.0 24.3 94 0.7 ESE 7 9 4 5 1006.8 - 0.0
16/03:30am 24.7 28.8 23.3 92 1.0 ESE 7 9 4 5 1006.7 - 0.0
16/03:00am 24.6 28.7 23.2 92 1.0 ESE 7 7 4 4 1006.7 1006.6 0.0
16/02:30am 24.7 28.8 23.3 92 1.0 ESE 7 7 4 4 1007.0 - 0.0
16/02:00am 24.7 28.7 23.1 91 1.1 SE 7 7 4 4 1007.3 - 0.0
16/01:30am 24.7 28.7 23.1 91 1.1 ESE 7 9 4 5 1007.7 - 0.0
16/01:00am 24.8 28.9 23.2 91 1.1 SE 7 7 4 4 1008.1 - 0.0
16/12:30am 24.9 29.0 23.3 91 1.1 SE 7 9 4 5 1008.1 - 0.0
16/12:00am 25.1 29.4 23.3 90 1.2 ESE 6 7 3 4 1008.3 1008.2 0.0
 
Date/Time
CST
Temp
°C
App
Temp
°C
Dew
Point
°C
Rel
Hum
%
Delta-T
°C
Wind Press
QNH
hPa
Press
MSL
hPa
Rain since
9am
mm
Dir  Spd
km/h
Gust
km/h
Spd
kts
Gust
kts
15/11:30pm 25.2 29.4 23.4 90 1.2 SE 7 7 4 4 1008.7 - 0.0
15/11:00pm 25.3 29.7 23.4 89 1.3 ESE 6 7 3 4 1008.6 - 0.0
15/10:30pm 25.4 29.7 23.3 88 1.4 ESE 6 7 3 4 1008.6 - 0.0
15/10:00pm 25.6 30.0 23.5 88 1.4 E 6 7 3 4 1008.5 - 0.0
15/09:30pm 25.7 29.8 23.2 86 1.7 E 7 7 4 4 1008.1 - 0.0
15/09:00pm 26.0 30.4 23.5 86 1.7 ESE 6 7 3 4 1007.9 1007.8 0.0
15/08:30pm 26.1 30.5 23.4 85 1.8 SE 6 7 3 4 1007.3 - 0.0
15/08:00pm 26.4 30.8 23.5 84 2.0 E 6 7 3 4 1006.7 - 0.0
15/07:30pm 26.8 31.0 23.1 80 2.5 E 6 9 3 5 1006.4 - 0.0
15/07:00pm 27.2 31.0 22.8 77 3.0 E 7 9 4 5 1006.0 - 0.0
15/06:30pm 27.5 31.8 23.3 78 2.9 ESE 6 7 3 4 1005.7 - 0.0
15/06:00pm 27.7 31.9 23.5 78 2.9 NE 7 9 4 5 1005.1 1005.0 0.0
15/05:30pm 27.5 31.2 23.3 78 2.9 ENE 9 17 5 9 1005.1 - 0.0
15/05:00pm 28.2 31.8 24.4 80 2.6 ENE 13 19 7 10 1005.6 - 0.0

Latest Capital City Observations: Canberra | Sydney | Melbourne | Brisbane | Adelaide | Perth | Hobart | Darwin

Other Formats:

Comma delimited format used in spreadsheet applications
http://www.bom.gov.au/fwo/IDD60901/IDD60901.94122.axf

JavaScript Object Notation format (JSON) in row-major order
http://www.bom.gov.au/fwo/IDD60901/IDD60901.94122.json